Pavlos Tachtsidis

Jefe de ojeadores - PAOK
22 Feb 2028
Martes
Continuar

Personalidad

Adaptabilidad (14) Ambición (3) Controversia (8) Lealtad (1) Presión (1) Profesionalismo (8) Deportividad (11) Temperamento (3)

Perfil

Estilo de dirección Democrático
Licencia Nacional A
Determinación 13
Gestión de personas 9
Motivación 5
Disciplina 14
Satisfacción laboral
100%
Fatiga
0%
Cargo Jefe de ojeadores
Salario 29.8K p/s
Contrato 14.03.2030

Rendimiento

Comportamiento Bueno
Efectividad del entrenamiento
48%
Desarrollo de jugadores
30%
Prevención de lesiones
45%
Implementación táctica
25%

Eventos recientes

Evaluó a un jugador ahora
Asistió a una reunión de captación ahora
Asistió a una reunión de captación ahora
Recomendó un objetivo de fichaje ahora
Recomendó un objetivo de fichaje ahora
Recomendó un objetivo de fichaje ahora
Evaluó a un jugador 7d atrás
Evaluó a un jugador 7d atrás

Actualmente siguiendo

328
Jugador Club Estado Habilidad Confianza Observado Última observación Último voto
Fillip Jenssen Riise Stabaek Activo 98 / 113 40% 7 21.02.2028 -
Daniel Banjaqui Benfica Activo 126 / 126 40% 2 21.02.2028 -
Nikola Simić Partizan Activo 115 / 129 40% 1 21.02.2028 -
Giovanni Leoni Bradford City Activo 143 / 146 40% 7 17.02.2028 -
Ernie Weaver AFC Wimbledon Activo 111 / 125 40% 4 17.02.2028 -
Joel McGregor Swindon Town Activo 95 / 103 40% 3 16.02.2028 -
Josh Nichols Tranmere Rovers Activo 124 / 122 40% 3 15.02.2028 -
Eduardo Felicíssimo Sporting CP Activo 127 / 126 40% 3 15.02.2028 -
Vasilije Novičić IMT Activo 108 / 112 40% 2 15.02.2028 -
Keagan Phiri Platinum Stars Activo 109 / 102 40% 2 14.02.2028 -
Izan Merino Málaga Activo 134 / 134 40% 2 14.02.2028 -
Pablo Lúcio Bristol City Activo 117 / 122 40% 1 14.02.2028 -
Jan Bürger Gillingham Activo 123 / 123 40% 2 13.02.2028 -
Rivaldo Grobler Free State Stars Activo 109 / 116 40% 2 13.02.2028 -
Trey Nyoni Rotherham United Activo 141 / 140 40% 6 11.02.2028 -
Martim Cunha Porto Activo 113 / 111 40% 1 11.02.2028 -
Darryl Bakola Padova Activo 120 / 120 40% 3 09.02.2028 -
Luis Otávio Colorado Rapids Activo 103 / 126 40% 7 09.02.2028 -
Ronan Kpakio Cardiff City Activo 124 / 127 40% 7 08.02.2028 -
Buba Sangaré Elche Activo 131 / 135 40% 3 08.02.2028 -
Maxim Radchenko Rostov Activo 93 / 88 40% 2 07.02.2028 -
Jorthy Mokio ADO Den Haag Activo 129 / 137 40% 1 07.02.2028 -
Mauro Carrizo Atlético Tucumán Activo 104 / 111 40% 6 31.01.2028 -
Jaydee Canvot AJ Auxerre Activo 143 / 144 40% 6 31.01.2028 -
Jorge Salinas Racing Santander Activo 127 / 138 40% 3 31.01.2028 -
Esquerdinha Shrewsbury Town Activo 124 / 126 40% 3 30.01.2028 -
Luiz Henrique Club America Activo 142 / 143 68% 1 24.01.2028 Aprobar
Enzo Koffi Le Havre AC Activo 118 / 118 40% 1 20.01.2028 -
Dmitry Pestryakov Dinamo Moscow Activo 122 / 125 40% 1 20.01.2028 -
Hervin Goyes Deportivo Pasto Activo 106 / 109 40% 7 16.01.2028 -
Mikkel Hope Haugesund Activo 102 / 103 40% 8 16.01.2028 -
José Correa Deportivo Tachira Activo 93 / 92 40% 3 16.01.2028 -
Alpha Touré FC Metz Activo 117 / 129 40% 1 14.01.2028 -
Ricky Atletico Venezuela Activo 100 / 98 40% 7 13.01.2028 -
Sebastián Ramírez Jaguares Activo 104 / 118 40% 8 13.01.2028 -
Jair Collahuazo Kudrivka Activo 107 / 105 40% 1 13.01.2028 -
Lucas Høgsberg RC Strasbourg Activo 141 / 146 40% 2 10.01.2028 -
Christos Mouzakitis Hull City Activo 132 / 141 40% 7 09.01.2028 -
Caleb Yirenkyi Coventry City Activo 144 / 146 40% 7 07.01.2028 -
Louis Leroux FC Nantes Activo 130 / 140 40% 2 06.01.2028 -
Tyson Pearce St. Louis CITY SC Activo 84 / 94 40% 4 05.01.2028 -
Noahkai Banks Hamburger SV Activo 137 / 146 40% 1 05.01.2028 -
Facundo Torres LOSC Lille Activo 135 / 135 67% 1 01.01.2028 Aprobar
Pedro de la Vega FC Dallas Activo 133 / 134 66% 1 01.01.2028 Aprobar
Joel Ezra Enyimba Activo 104 / 105 40% 13 31.12.2027 -
Panagiotis Markou Doxa Activo 90 / 96 40% 4 06.12.2027 -
Jofre Torrents Ajax Activo 131 / 141 40% 1 06.12.2027 -
David Valencia Alianza Petrolera Activo 125 / 127 40% 8 03.12.2027 -
Juan Morán Godoy Cruz Activo 114 / 110 40% 2 03.12.2027 -
Mads Bomholt Stabaek Activo 101 / 109 40% 4 29.11.2027 -
Tobias Moi Bodo/Glimt Activo 107 / 117 40% 1 29.11.2027 -
Olaniyi Saheed Kwara United Activo 103 / 100 40% 6 28.11.2027 -
Colin Guske Orlando City Activo 83 / 98 40% 2 28.11.2027 -
Dayann Methalie Aston Villa Activo 135 / 142 40% 2 26.11.2027 -
Jovan Milosavljević Kalmar FF Activo 101 / 109 40% 2 25.11.2027 -
Yoram Zague Paris Saint-Germain Activo 123 / 132 40% 1 25.11.2027 -
Ayden Heaven Luton Town Activo 147 / 150 40% 5 23.11.2027 -
Dominik Chong Qui Atlanta United FC Activo 83 / 106 40% 2 22.11.2027 -
Marvelous Freedom Ikorodu City Activo 102 / 90 40% 6 21.11.2027 -
Muminhon Bahodirxonov Neftchi Activo 84 / 98 40% 2 18.11.2027 -
Felipe Obradovich Ferro Carril Oeste Activo 109 / 115 40% 1 18.11.2027 -
Pape Diong Westerlo Activo 115 / 126 40% 1 16.11.2027 -
Bahia Criciuma Activo 108 / 119 40% 1 14.11.2027 -
Celías Ingenthron Vélez Activo 121 / 124 40% 1 12.11.2027 -
Santino Pasini Nea Salamis Activo 108 / 110 40% 1 12.11.2027 -
Ignacio Fernández Boston River Activo 100 / 100 40% 5 10.11.2027 -
Harbor Miller LA Galaxy Activo 106 / 111 40% 2 04.11.2027 -
Matías Gómez Granada Activo 120 / 130 40% 3 02.11.2027 -
Adrian Gill Atlanta United FC Activo 95 / 94 40% 1 02.11.2027 -
Nazareno Roselli Defensa y Justicia Activo 113 / 125 40% 4 01.11.2027 -
Sam Curtis Cambridge United Activo 102 / 110 40% 1 25.10.2027 -
Kauã Moraes Cruzeiro Activo 127 / 124 40% 3 24.10.2027 -
Diego Vargas San Marcos de Arica Activo 100 / 97 40% 5 21.10.2027 -
Agustín Obregón River Plate Activo 106 / 119 40% 1 21.10.2027 -
Edvard Pettersen Sandefjord Activo 100 / 118 40% 1 16.10.2027 -
Alejandro Almaraz Nueva Chicago Activo 115 / 112 40% 5 14.10.2027 -
Jens Hjertø-Dahl Hull City Activo 132 / 135 40% 1 13.10.2027 -
Yiandro Raap Ilves Activo 98 / 107 40% 3 11.10.2027 -
Theodor Lundbergh Malmo FF Activo 87 / 99 40% 1 03.10.2027 -
Malick Yalcouyé Brighton Activo 136 / 139 40% 3 02.10.2027 -
Teo Rodríguez Pagano River Plate Activo 110 / 118 40% 1 02.10.2027 -
Emiliano Bértoli Patronato Activo 89 / 103 40% 3 26.09.2027 -
Álvaro Navoni Tigre Activo 91 / 94 40% 1 21.09.2027 -
Martín Jiménez Audax Italiano Activo 92 / 104 40% 1 19.09.2027 -
Mohamed Moussa Koïta Djoliba Activo 107 / 110 40% 1 16.09.2027 -
Esteban de Lima Tacuarembo Activo 99 / 94 40% 2 14.09.2027 -
Archie Gray Derby County Activo 143 / 157 40% 2 14.09.2027 -
José Cavadia Aguilas Doradas Activo 114 / 118 40% 1 12.09.2027 -
Mbekezeli Mbokazi Chicago Fire Activo 138 / 121 40% 4 11.09.2027 -
Ulises Giménez River Plate Activo 112 / 121 40% 1 10.09.2027 -
Pedro Soma San Diego Football Club Activo 95 / 104 40% 2 08.09.2027 -
Otto Tiitinen Ilves Activo 86 / 97 40% 1 08.09.2027 -
Vadim Arutyunyan Dnepr Mogilev Activo 90 / 96 40% 1 02.09.2027 -
Figueiredo Sampaio Correa Activo 91 / 104 40% 1 31.08.2027 -
Gopolang Taunyane CR Belouizdad Activo 89 / 101 40% 2 30.08.2027 -
Bence Szakos Aris Activo 100 / 102 40% 1 24.08.2027 -
Aiden Hezarkhani Real Salt Lake Activo 89 / 103 40% 1 24.08.2027 -
Gadiel Paoli River Plate Activo 101 / 95 40% 1 22.08.2027 -
Victor Castillo Ceará Activo 124 / 134 40% 3 20.08.2027 -
Ismail Al Suwaidi Al Fujairah Activo 139 / 137 40% 1 18.08.2027 -
Nika Kvaratskhelia Tskhinvali Activo 82 / 92 40% 1 17.08.2027 -
Riley Owen Trento Activo 103 / 113 40% 1 17.08.2027 -
Leonardo Mendicino Bari Activo 121 / 130 40% 1 10.08.2027 -
Tobias Slotsager Casertana Activo 112 / 117 40% 1 09.08.2027 -
Tiago Freitas Benfica Activo 120 / 119 40% 1 08.08.2027 -
Juan Giménez Celta Activo 119 / 123 40% 1 08.08.2027 -
Daniel Kelly Oxford United Activo 115 / 123 40% 3 06.08.2027 -
Martin Georgiev Aris Thessaloniki Activo 113 / 128 40% 1 06.08.2027 -
Finley McAllister Grimsby Town Activo 94 / 100 40% 1 06.08.2027 -
Vasco Santos Oliveirense Activo 95 / 104 40% 1 05.08.2027 -
Edoardo Tartaglia Renate Activo 102 / 105 40% 1 05.08.2027 -
Cédric Don Maccabi Haifa Activo 135 / 119 40% 1 02.08.2027 -
Adalberto Peñaranda Deportivo Tachira Activo 123 / 118 40% 1 02.08.2027 -
Yousef Salech Cardiff City Activo 136 / 131 40% 2 01.08.2027 -
Ephron Mason-Clark Coventry City Activo 129 / 126 40% 1 01.08.2027 -
Ali Youssef Apollon Activo 134 / 130 40% 7 31.07.2027 -
Patson Daka Leicester City Activo 135 / 131 40% 3 31.07.2027 -
Dylan Lawlor Cardiff City Activo 121 / 128 40% 1 29.07.2027 -
Saman Rezaeian Gostaresh Foulad Activo 118 / 125 40% 1 29.07.2027 -
Mathias Jørgensen Blackburn Rovers Activo 122 / 118 40% 3 28.07.2027 -
Bojan Radulović Huddersfield Town Activo 124 / 118 40% 2 28.07.2027 -
Youssef En-Nesyri Al-Ittihad Activo 156 / 140 40% 1 28.07.2027 -
Ilyas Ansah Hull City Activo 131 / 135 40% 4 26.07.2027 -
Callum O'Hare Sheffield United Activo 132 / 135 40% 3 26.07.2027 -
Aidomo Emakhu Oxford United Activo 126 / 129 40% 3 25.07.2027 -
Dom Ballard Leyton Orient Activo 129 / 121 40% 2 25.07.2027 -
Sam Bell Bristol City Activo 125 / 123 40% 1 25.07.2027 -
Keagan Tau Ajax Cape Town Activo 87 / 103 40% 4 24.07.2027 -
Aaron Collins Milton Keynes Dons Activo 128 / 121 40% 1 24.07.2027 -
Joe Gelhardt Hull City Activo 138 / 137 40% 8 22.07.2027 -
Lewis Morgan SuperSport United Activo 127 / 133 40% 3 21.07.2027 -
Zian Flemming Ipswich Town Activo 136 / 137 40% 1 19.07.2027 -
John Okoye Ebuka Ittihad Activo 114 / 128 40% 1 14.07.2027 -
Shahriar Dejagah Tractor Activo 122 / 127 40% 3 13.07.2027 -
Karlan Grant West Bromwich Albion Activo 117 / 125 40% 2 13.07.2027 -
Richard Koné Queens Park Rangers Activo 133 / 123 40% 1 12.07.2027 -
Elijah Adebayo Luton Town Activo 127 / 125 40% 1 12.07.2027 -
Yoane Wissa Newcastle United Activo 144 / 143 40% 2 10.07.2027 -
Abu Kamara Portsmouth Activo 126 / 122 40% 1 09.07.2027 -
Tyreece Campbell Charlton Athletic Activo 115 / 127 40% 2 07.07.2027 -
Giuseppe Di Serio Spezia Activo 129 / 118 40% 1 07.07.2027 -
Jovon Makama Norwich City Activo 131 / 127 40% 1 06.07.2027 -
Che Adams Torino Activo 144 / 143 40% 1 05.07.2027 -
Kyle Wootton Stockport County Activo 119 / 119 40% 1 05.07.2027 -
Matteo Rover Reggiana Activo 129 / 116 40% 1 04.07.2027 -
Lorent Tolaj Plymouth Argyle Activo 125 / 124 40% 1 02.07.2027 -
Dwight McNeil Crystal Palace Activo 146 / 145 40% 1 02.07.2027 -
Moussa Dembélé CR Belouizdad Activo 121 / 132 40% 1 02.07.2027 -
Themba Ngcobo SuperSport United Activo 135 / 117 40% 1 01.07.2027 -
Ross Stewart Southampton Activo 134 / 128 40% 1 29.06.2027 -
Rhian Brewster Oxford United Activo 126 / 128 40% 1 29.06.2027 -
Daniel Vernattus Metalist Activo 86 / 104 40% 1 26.06.2027 -
Leandro Martins Benfica Activo 98 / 104 40% 1 25.06.2027 -
Freddy Murillo Valencia Activo 112 / 121 40% 1 20.06.2027 -
Samuele di Benedetto Bari Activo 109 / 117 40% 1 18.06.2027 -
Samuel Lucero Defensa y Justicia Activo 122 / 123 40% 1 17.06.2027 -
Kazunari Kita Real Sociedad Activo 93 / 105 40% 1 15.06.2027 -
Nicolas Madsen Queens Park Rangers Activo 135 / 127 40% 6 30.05.2027 -
Ethan Galbraith Swansea City Activo 141 / 130 40% 5 30.05.2027 -
Darlin Yongwa Norwich City Activo 132 / 121 40% 2 30.05.2027 -
Jacob Greaves Ipswich Town Activo 138 / 137 40% 3 30.05.2027 -
Bobby Thomas Coventry City Activo 139 / 137 40% 2 29.05.2027 -
Idris El Mizouni Leyton Orient Activo 120 / 115 40% 1 28.05.2027 -
Di'Shon Bernard Sheffield Wednesday Activo 117 / 125 40% 3 27.05.2027 -
Oliver Skipp Leicester City Activo 133 / 131 40% 3 27.05.2027 -
Welington Southampton Activo 127 / 129 40% 5 26.05.2027 -
Ryan Trevitt Cambridge United Activo 115 / 119 40% 1 26.05.2027 -
Jack Currie Oxford United Activo 129 / 126 40% 4 24.05.2027 -
Oumar Solet Udinese Activo 150 / 144 40% 3 24.05.2027 Observar
Fedor Lapoukhov CSKA Sofia Activo 114 / 123 40% 1 24.05.2027 -
Adilson Malanda Middlesbrough Activo 125 / 127 40% 2 23.05.2027 -
Callum Doyle Wrexham Activo 135 / 133 40% 3 22.05.2027 -
Bosun Lawal Stoke City Activo 128 / 131 40% 3 22.05.2027 -
Ilario Monterisi Frosinone Activo 132 / 131 40% 1 22.05.2027 -
Kayne Ramsay Charlton Athletic Activo 131 / 127 40% 1 20.05.2027 -
Aidan Morris Middlesbrough Activo 130 / 129 40% 5 19.05.2027 -
Tariq Lamptey Queens Park Rangers Activo 141 / 133 40% 4 18.05.2027 -
Andrea Carboni Monza Activo 136 / 132 40% 2 17.05.2027 -
Harry Clarke Preston Activo 133 / 124 40% 5 16.05.2027 -
Pelle Mattsson Norwich City Activo 124 / 123 40% 1 15.05.2027 -
Daniel Tonoli Modena Activo 130 / 120 40% 1 13.05.2027 -
Othmane Maamma Watford Activo 132 / 130 40% 3 12.05.2027 -
Juan Mosquera Sheffield Wednesday Activo 121 / 127 40% 2 12.05.2027 -
James Morris Leyton Orient Activo 108 / 113 40% 5 12.05.2027 -
Cian Ashford Cardiff City Activo 117 / 121 40% 1 12.05.2027 -
Habib Diarra Sunderland Activo 135 / 139 40% 4 10.05.2027 -
Femi Seriki Sheffield United Activo 130 / 132 40% 2 10.05.2027 -
Teden Mengi Luton Town Activo 118 / 121 40% 4 09.05.2027 -
Milan van Ewijk Mansfield Town Activo 133 / 132 40% 6 08.05.2027 -
Lucas Da Cunha Como Activo 149 / 147 40% 1 07.05.2027 -
Mandla Erasmus SuperSport United Activo 130 / 116 40% 8 06.05.2027 -
Aaron Morley Wycombe Wanderers Activo 121 / 117 40% 1 05.05.2027 -
Ethan Pye Stockport County Activo 115 / 121 40% 1 05.05.2027 -
Alfie Doughty Millwall Activo 130 / 124 40% 2 04.05.2027 -
Caolan Boyd-Munce Wycombe Wanderers Activo 113 / 115 40% 1 04.05.2027 -
Kristoffer Lund Birmingham Activo 133 / 129 40% 4 03.05.2027 -
Gustavo Assunção Apollon Activo 120 / 110 40% 1 03.05.2027 -
Leif Davis Ipswich Town Activo 135 / 133 40% 4 30.04.2027 -
Ronnie Edwards Queens Park Rangers Activo 133 / 129 40% 2 30.04.2027 -
Filippo Ranocchia Palermo Activo 132 / 131 40% 2 29.04.2027 -
Jacques Ekomié Wrexham Activo 123 / 128 40% 3 28.04.2027 -
Kellen Fisher Norwich City Activo 123 / 128 40% 3 25.04.2027 -
Álvaro Carrillo APOEL Activo 126 / 120 40% 4 25.04.2027 -
Shea Charles Southampton Activo 128 / 137 40% 6 24.04.2027 -
Nadir Zortea Bologna Activo 135 / 136 40% 4 24.04.2027 -
Georgie Gent Barnsley Activo 115 / 118 40% 1 24.04.2027 -
Liam Thompson Mansfield Town Activo 123 / 119 40% 1 22.04.2027 -
Andre Dozzell Doncaster Rovers Activo 113 / 112 40% 1 22.04.2027 -
Samuele Angori Pisa Activo 136 / 133 40% 2 21.04.2027 -
Radek Vítek Middlesbrough Activo 135 / 142 40% 1 19.04.2027 -
Filip Marschall Stevenage Activo 116 / 115 40% 1 19.04.2027 -
Toby Collyer West Bromwich Albion Activo 131 / 129 40% 2 18.04.2027 -
Edoardo Bove Watford Activo 126 / 134 40% 2 18.04.2027 -
Derry Murkin Derby County Activo 133 / 125 40% 2 17.04.2027 -
Christian Krasnodar Activo 142 / 129 40% 4 15.04.2027 -
Emanuel Aiwu Apollon Activo 116 / 111 40% 3 15.04.2027 -
Florentino Luís Ipswich Town Activo 148 / 143 40% 2 11.04.2027 -
Bali Mumba Huddersfield Town Activo 122 / 111 40% 2 05.04.2027 -
Will Fish Cardiff City Activo 115 / 123 40% 1 04.04.2027 -
Walid Juma Al Shaab Activo 120 / 120 40% 1 04.04.2027 -
Lorenzo Cordaro Pergolettese Activo 105 / 104 40% 1 04.04.2027 -
Max Bird Birmingham Activo 130 / 134 40% 5 03.04.2027 -
Kane Wilson Milton Keynes Dons Activo 109 / 114 40% 1 01.04.2027 -
Jordan Zemura Udinese Activo 133 / 136 40% 1 27.03.2027 -
Josh Tymon Swansea City Activo 130 / 123 40% 2 26.03.2027 -
Brian De Keersmaecker Oxford United Activo 125 / 125 40% 3 25.03.2027 -
Kings Kangwa Panathinaikos Activo 136 / 138 40% 6 22.03.2027 -
Luke McNally Bristol City Activo 133 / 131 40% 2 22.03.2027 -
Harvey White Stevenage Activo 115 / 117 40% 1 16.03.2027 -
Lukáš Červ Viktoria Plzen Activo 128 / 129 40% 1 15.03.2027 -
Marlon Gomes Shakhtar Activo 128 / 137 40% 4 13.03.2027 -
Adam Randell Bristol City Activo 126 / 129 40% 1 10.03.2027 -
Brodie Spencer Oxford United Activo 117 / 124 40% 1 05.03.2027 -
Japhet Tanganga Sheffield United Activo 125 / 131 40% 3 03.03.2027 -
Lewis Gibson Preston Activo 131 / 125 40% 2 03.03.2027 -
Anel Ahmedhodžić Burnley Activo 133 / 135 40% 2 02.03.2027 -
Filipe Relvas AEK Activo 122 / 133 40% 1 02.03.2027 Más información
Silvio Gentile Zob Ahan Activo 120 / 126 40% 1 25.02.2027 -
Strahinja Manojlović Radnicki Nis Activo 116 / 107 40% 1 21.02.2027 -
Michael Cooper Sheffield United Activo 132 / 125 40% 1 21.02.2027 -
James Garner Everton Activo 155 / 147 40% 1 19.02.2027 -
Jan Bačkovský Dukla Prague Activo 111 / 114 40% 2 18.02.2027 -
Rubens Dinamo Moscow Activo 135 / 124 40% 1 15.02.2027 -
Merchas Doski Viktoria Plzen Activo 131 / 121 40% 1 08.02.2027 -
Azzedine Ounahi Panathinaikos Activo 144 / 142 40% 1 07.02.2027 -
Alexandr Koryakin Krasnodar Activo 117 / 117 40% 2 02.02.2027 -
Dennis Cirkin Queens Park Rangers Activo 119 / 130 40% 1 23.01.2027 -
Jordan Beyer Burnley Activo 129 / 135 40% 1 12.01.2027 -
Manfred Ugalde Spartak Moscow Activo 140 / 135 40% 2 07.01.2027 -
Mees Rijks Bristol Rovers Activo 113 / 116 40% 1 07.01.2027 -
Stanislav Agkatsev Sunderland Activo 132 / 133 66% 1 01.01.2027 Aprobar
George Earthy Reading Activo 112 / 120 40% 4 30.12.2026 -
Ebrima Singhateh Jablonec Activo 112 / 112 40% 1 30.12.2026 -
Armando Broja Burnley Activo 130 / 138 40% 1 30.12.2026 -
Aune Heggebø West Bromwich Albion Activo 127 / 122 40% 2 29.12.2026 -
Robert Mizo Ashanti Gold Activo 120 / 105 40% 1 29.12.2026 -
Ollie Tanner Cardiff City Activo 117 / 120 40% 1 27.12.2026 -
Ethan Williams Peterborough United Activo 115 / 122 40% 1 27.12.2026 -
Dara O'Shea Ipswich Town Activo 141 / 136 40% 1 25.12.2026 -
Evidence Makgopa Orlando Pirates Activo 127 / 115 40% 1 25.12.2026 -
Jhon Jhon Zenit Activo 130 / 127 40% 5 22.12.2026 -
Hélio Varela Maccabi Tel Aviv Activo 137 / 120 40% 1 22.12.2026 -
Felipe Augusto Zenit Activo 130 / 136 40% 1 22.12.2026 -
Williams Manyama SuperSport United Activo 127 / 126 40% 5 19.12.2026 -
Tomás González Piast Activo 111 / 121 40% 3 18.12.2026 -
Dávid Strelec Middlesbrough Activo 132 / 142 40% 1 18.12.2026 -
Enzo Cabrera AE Kition Activo 104 / 112 40% 1 14.12.2026 -
Niall Ennis Blackpool Activo 112 / 114 40% 1 14.12.2026 -
Yaroslav Gladyshev Dinamo Moscow Activo 130 / 119 40% 1 13.12.2026 -
Bongani Mothiba SuperSport United Activo 78 / 80 40% 1 09.12.2026 -
Angelo Gattermayer Wolfsberger AC Activo 118 / 125 40% 3 05.12.2026 -
Jacques Siwe Rubin Activo 114 / 119 40% 1 05.12.2026 -
Facundo Pellistri Panathinaikos Activo 140 / 133 40% 3 02.12.2026 -
Ştefan Baiaram Universitatea Craiova Activo 119 / 121 40% 1 01.12.2026 -
Florin Maxim Astra Activo 125 / 116 40% 3 30.11.2026 -
Siyanda Ndlovu Bloemfontein Celtic Activo 110 / 116 40% 2 28.11.2026 -
Berna CSKA 1948 Activo 118 / 121 40% 1 27.11.2026 -
Ihor Krasnopir Polissia Activo 119 / 111 40% 2 26.11.2026 -
Yuber Quiñónes Deportivo Pereira Activo 126 / 122 40% 4 25.11.2026 -
Ahmad Yazdani Padideh Activo 119 / 135 40% 2 22.11.2026 -
Joaquín Gho Argentinos Juniors Activo 117 / 118 40% 1 21.11.2026 -
Mduduzi Shabalala Kaizer Chiefs Activo 100 / 112 40% 1 18.11.2026 -
Suleiman Camara Slovan Bratislava Activo 125 / 127 40% 3 17.11.2026 -
Conrad Wallem Austria Wien Activo 128 / 125 40% 2 16.11.2026 -
Mayckel Lahdo Malmo FF Activo 123 / 133 40% 1 16.11.2026 -
Augusto Schott Talleres Activo 117 / 125 40% 1 16.11.2026 -
Bénie Traoré New York City Activo 118 / 121 40% 1 14.11.2026 -
Ramiro Hernandes Belgrano Activo 113 / 128 40% 1 09.11.2026 -
Lassina Traoré Shakhtar Activo 122 / 117 40% 1 05.11.2026 -
Tio Cipot NK Maribor Activo 119 / 123 40% 2 03.11.2026 -
Patrick Yazbek Nashville SC Activo 127 / 117 40% 1 03.11.2026 -
Matheus Gonçalves Al-Ahli Activo 115 / 122 40% 1 02.11.2026 -
Alexandru Musi Voluntari Activo 127 / 115 40% 1 02.11.2026 -
Bamba Dieng Crvena Zvezda Activo 121 / 132 40% 1 31.10.2026 -
Facundo Mura Inter Miami CF Activo 134 / 125 40% 1 29.10.2026 -
Ruben van Bommel Ferencvaros Activo 124 / 139 40% 2 24.10.2026 -
Charalabos Charalabous Aris Activo 128 / 111 40% 2 24.10.2026 -
Amin Boudri Los Angeles Football Club Activo 123 / 137 40% 1 19.10.2026 -
Ibrahim Aliyu Houston Dynamo Activo 117 / 112 40% 4 18.10.2026 -
Mandla Mahlangu Ajax Cape Town Activo 123 / 103 40% 1 13.10.2026 -
Sam Nombe Milton Keynes Dons Activo 111 / 103 40% 1 13.10.2026 -
Nazar Voloshyn Dynamo Kyiv Activo 135 / 132 40% 1 11.10.2026 -
Ralph Orquin Seattle Sounders Activo 113 / 128 40% 3 10.10.2026 -
Luciano Gondou CSKA Moscow Activo 124 / 123 40% 1 10.10.2026 -
Ali Majrashi Al-Ahli Activo 140 / 132 40% 1 08.10.2026 -
Seedy Jatta Sturm Graz Activo 125 / 125 40% 1 06.10.2026 -
Capita Sporting Kansas City Activo 110 / 103 40% 1 03.10.2026 -
Alexander Aravena Portland Timbers Activo 124 / 134 40% 2 02.10.2026 -
Lucas Sanabria LA Galaxy Activo 130 / 123 40% 1 02.10.2026 -
Ramiro Ruiz Rodríguez Atlético Tucumán Activo 111 / 127 40% 1 02.10.2026 -
Leonardo Campana New England Revolution Activo 122 / 133 40% 1 02.10.2026 -
Telasco Segovia Inter Miami CF Activo 144 / 126 40% 3 29.09.2026 -
Quinn Sullivan Philadelphia Union Activo 132 / 126 40% 2 28.09.2026 -
Jimer Fory Portland Timbers Activo 107 / 118 40% 1 27.09.2026 -
Lawrence Ennali Houston Dynamo Activo 125 / 112 40% 1 27.09.2026 -
Agustín Anello Philadelphia Union Activo 133 / 115 40% 1 26.09.2026 -
Hamzat Ojediran Colorado Rapids Activo 133 / 117 40% 1 25.09.2026 -
Gabriel Pirani San Diego Football Club Activo 139 / 137 40% 1 24.09.2026 -
Cătălin Cîrjan Dinamo Bucharest Activo 128 / 118 40% 1 22.09.2026 -
Timothy Zechariah Rivers United Activo 83 / 102 40% 1 16.09.2026 -
Diego Luna Real Salt Lake Activo 124 / 115 40% 1 12.09.2026 -
Mateusz Bogusz Houston Dynamo Activo 137 / 128 40% 1 11.09.2026 -
Mauricio Amaro Atlanta United FC Activo 119 / 128 40% 1 09.09.2026 -
Indiana Vassilev Philadelphia Union Activo 121 / 115 40% 1 09.09.2026 -
David Ayala Inter Miami CF Activo 121 / 118 40% 1 07.09.2026 -
Matvey Kislyak CSKA Moscow Activo 134 / 141 40% 1 02.09.2026 -
Jökull Andrésson FH Activo 92 / 96 40% 1 18.08.2026 -
Vladimir Nazarov Pakhtakor Activo 94 / 115 40% 1 18.08.2026 -